Terminal Aerodrome Forecast
Issued by NWS Pueblo, CO

Current Version | Previous Version | Text Only | Print | Product List | Glossary On
Versions: 1 2 3 4 5 6 7 8 9 10 11 12 13 14 15 16 17 18 19 20 21 22 23 24 25 26 27 28 29 30 31 32 33 34 35 36 37 38 39 40 41 42 43 44 45 46 47 48 49
000
FTUS45 KPUB 301911 AAA
TAFPUB
TAF AMD
KPUB 301911Z 3019/3118 12009KT P6SM SCT150 SCT250
     FM310100 08010KT P6SM SCT150 BKN200
     FM310400 08009KT P6SM SCT090 BKN150
     FM311300 07009KT P6SM BKN015=

USA.gov is the U.S. government's official web portal to all federal, state and local government web resources and services.